sensor_id;sensor_type;location;lat;lon;timestamp;P1;durP1;ratioP1;P2;durP2;ratioP2
67861;SDS011;54665;51.462;6.698;2024-01-16T00:01:21;12.50;;;3.53;;
67861;SDS011;54665;51.462;6.698;2024-01-16T00:03:22;11.57;;;3.77;;
67861;SDS011;54665;51.462;6.698;2024-01-16T00:05:22;9.23;;;3.07;;
67861;SDS011;54665;51.462;6.698;2024-01-16T00:07:22;10.83;;;2.40;;
67861;SDS011;54665;51.462;6.698;2024-01-16T00:09:22;10.97;;;3.60;;
67861;SDS011;54665;51.462;6.698;2024-01-16T00:11:23;7.37;;;2.43;;
67861;SDS011;54665;51.462;6.698;2024-01-16T00:13:23;6.22;;;2.05;;
67861;SDS011;54665;51.462;6.698;2024-01-16T00:15:23;6.07;;;2.47;;
67861;SDS011;54665;51.462;6.698;2024-01-16T00:17:24;6.33;;;2.40;;
67861;SDS011;54665;51.462;6.698;2024-01-16T00:19:24;9.50;;;2.77;;
67861;SDS011;54665;51.462;6.698;2024-01-16T00:21:24;8.43;;;2.80;;
67861;SDS011;54665;51.462;6.698;2024-01-16T00:23:25;8.27;;;2.80;;
67861;SDS011;54665;51.462;6.698;2024-01-16T00:25:25;9.00;;;2.90;;
67861;SDS011;54665;51.462;6.698;2024-01-16T00:27:25;6.40;;;2.30;;
67861;SDS011;54665;51.462;6.698;2024-01-16T00:29:25;9.40;;;3.17;;
67861;SDS011;54665;51.462;6.698;2024-01-16T00:31:26;8.27;;;2.20;;
67861;SDS011;54665;51.462;6.698;2024-01-16T00:33:26;6.88;;;2.80;;
67861;SDS011;54665;51.462;6.698;2024-01-16T00:35:26;8.47;;;2.63;;
67861;SDS011;54665;51.462;6.698;2024-01-16T00:37:27;7.47;;;2.03;;
67861;SDS011;54665;51.462;6.698;2024-01-16T00:39:27;6.93;;;2.07;;
67861;SDS011;54665;51.462;6.698;2024-01-16T00:41:27;9.73;;;2.50;;
67861;SDS011;54665;51.462;6.698;2024-01-16T00:43:27;5.53;;;2.20;;
67861;SDS011;54665;51.462;6.698;2024-01-16T00:45:28;10.00;;;3.10;;
67861;SDS011;54665;51.462;6.698;2024-01-16T00:47:28;7.17;;;2.07;;
67861;SDS011;54665;51.462;6.698;2024-01-16T00:49:28;7.63;;;2.60;;
67861;SDS011;54665;51.462;6.698;2024-01-16T00:51:28;8.38;;;2.50;;
67861;SDS011;54665;51.462;6.698;2024-01-16T00:53:29;9.10;;;2.93;;
67861;SDS011;54665;51.462;6.698;2024-01-16T00:55:29;10.43;;;3.07;;
67861;SDS011;54665;51.462;6.698;2024-01-16T00:57:29;8.43;;;2.70;;
67861;SDS011;54665;51.462;6.698;2024-01-16T00:59:30;6.97;;;2.10;;
67861;SDS011;54665;51.462;6.698;2024-01-16T01:01:31;7.18;;;2.42;;
67861;SDS011;54665;51.462;6.698;2024-01-16T01:03:31;10.40;;;2.87;;
67861;SDS011;54665;51.462;6.698;2024-01-16T01:05:31;13.63;;;3.53;;
67861;SDS011;54665;51.462;6.698;2024-01-16T01:07:32;10.80;;;3.40;;
67861;SDS011;54665;51.462;6.698;2024-01-16T01:09:32;6.83;;;2.50;;
67861;SDS011;54665;51.462;6.698;2024-01-16T01:11:32;11.02;;;2.92;;
67861;SDS011;54665;51.462;6.698;2024-01-16T01:13:33;10.77;;;3.47;;
67861;SDS011;54665;51.462;6.698;2024-01-16T01:15:33;14.30;;;2.93;;
67861;SDS011;54665;51.462;6.698;2024-01-16T01:17:33;10.77;;;3.40;;
67861;SDS011;54665;51.462;6.698;2024-01-16T01:19:34;10.20;;;3.00;;
67861;SDS011;54665;51.462;6.698;2024-01-16T01:21:35;9.73;;;3.20;;
67861;SDS011;54665;51.462;6.698;2024-01-16T01:23:35;8.70;;;2.78;;
67861;SDS011;54665;51.462;6.698;2024-01-16T01:25:36;11.63;;;3.33;;
67861;SDS011;54665;51.462;6.698;2024-01-16T01:27:36;8.03;;;3.40;;
67861;SDS011;54665;51.462;6.698;2024-01-16T01:29:36;11.63;;;3.65;;
67861;SDS011;54665;51.462;6.698;2024-01-16T01:31:37;14.82;;;3.17;;
67861;SDS011;54665;51.462;6.698;2024-01-16T01:33:37;10.50;;;3.40;;
67861;SDS011;54665;51.462;6.698;2024-01-16T01:35:37;6.70;;;2.53;;
67861;SDS011;54665;51.462;6.698;2024-01-16T01:37:38;10.87;;;3.13;;
67861;SDS011;54665;51.462;6.698;2024-01-16T01:39:38;9.07;;;2.87;;
67861;SDS011;54665;51.462;6.698;2024-01-16T01:41:38;9.77;;;3.30;;
67861;SDS011;54665;51.462;6.698;2024-01-16T01:43:39;7.88;;;3.10;;
67861;SDS011;54665;51.462;6.698;2024-01-16T01:45:39;9.50;;;3.70;;
67861;SDS011;54665;51.462;6.698;2024-01-16T01:47:39;9.60;;;3.23;;
67861;SDS011;54665;51.462;6.698;2024-01-16T01:49:41;9.35;;;2.97;;
67861;SDS011;54665;51.462;6.698;2024-01-16T01:51:41;9.20;;;3.07;;
67861;SDS011;54665;51.462;6.698;2024-01-16T01:53:43;9.57;;;3.30;;
67861;SDS011;54665;51.462;6.698;2024-01-16T01:55:44;10.97;;;3.20;;
67861;SDS011;54665;51.462;6.698;2024-01-16T01:57:45;9.73;;;3.20;;
67861;SDS011;54665;51.462;6.698;2024-01-16T01:59:45;9.93;;;3.23;;
67861;SDS011;54665;51.462;6.698;2024-01-16T02:01:46;8.73;;;3.27;;
67861;SDS011;54665;51.462;6.698;2024-01-16T02:03:48;9.38;;;3.58;;
67861;SDS011;54665;51.462;6.698;2024-01-16T02:05:49;10.88;;;3.42;;
67861;SDS011;54665;51.462;6.698;2024-01-16T02:07:50;9.90;;;3.13;;
67861;SDS011;54665;51.462;6.698;2024-01-16T02:09:51;10.40;;;3.67;;
67861;SDS011;54665;51.462;6.698;2024-01-16T02:11:51;10.30;;;3.23;;
67861;SDS011;54665;51.462;6.698;2024-01-16T02:13:51;16.23;;;3.93;;
67861;SDS011;54665;51.462;6.698;2024-01-16T02:15:52;8.80;;;3.00;;
67861;SDS011;54665;51.462;6.698;2024-01-16T02:17:52;8.40;;;2.80;;
67861;SDS011;54665;51.462;6.698;2024-01-16T02:19:52;8.88;;;3.47;;
67861;SDS011;54665;51.462;6.698;2024-01-16T02:21:54;15.20;;;4.17;;
67861;SDS011;54665;51.462;6.698;2024-01-16T02:23:59;9.65;;;3.40;;
67861;SDS011;54665;51.462;6.698;2024-01-16T02:25:59;11.40;;;3.00;;
67861;SDS011;54665;51.462;6.698;2024-01-16T02:28:01;9.90;;;2.87;;
67861;SDS011;54665;51.462;6.698;2024-01-16T02:30:02;11.63;;;3.83;;
67861;SDS011;54665;51.462;6.698;2024-01-16T02:32:03;10.35;;;3.63;;
67861;SDS011;54665;51.462;6.698;2024-01-16T02:34:03;9.00;;;3.53;;
67861;SDS011;54665;51.462;6.698;2024-01-16T02:36:04;6.27;;;2.47;;
67861;SDS011;54665;51.462;6.698;2024-01-16T02:38:04;12.25;;;3.72;;
67861;SDS011;54665;51.462;6.698;2024-01-16T02:40:05;10.80;;;4.13;;
67861;SDS011;54665;51.462;6.698;2024-01-16T02:42:05;10.02;;;3.70;;
67861;SDS011;54665;51.462;6.698;2024-01-16T02:44:06;10.97;;;4.00;;
67861;SDS011;54665;51.462;6.698;2024-01-16T02:46:06;12.13;;;4.80;;
67861;SDS011;54665;51.462;6.698;2024-01-16T02:48:06;14.27;;;4.13;;
67861;SDS011;54665;51.462;6.698;2024-01-16T02:50:07;12.57;;;4.80;;
67861;SDS011;54665;51.462;6.698;2024-01-16T02:52:07;15.80;;;4.60;;
67861;SDS011;54665;51.462;6.698;2024-01-16T02:54:08;12.47;;;4.77;;
67861;SDS011;54665;51.462;6.698;2024-01-16T02:56:08;14.43;;;5.20;;
67861;SDS011;54665;51.462;6.698;2024-01-16T02:58:09;15.65;;;5.47;;
67861;SDS011;54665;51.462;6.698;2024-01-16T03:00:09;16.73;;;5.07;;
67861;SDS011;54665;51.462;6.698;2024-01-16T03:02:10;17.13;;;5.03;;
67861;SDS011;54665;51.462;6.698;2024-01-16T03:04:10;12.88;;;4.57;;
67861;SDS011;54665;51.462;6.698;2024-01-16T03:06:20;15.37;;;5.27;;
67861;SDS011;54665;51.462;6.698;2024-01-16T03:08:21;14.82;;;5.22;;
67861;SDS011;54665;51.462;6.698;2024-01-16T03:10:22;14.52;;;5.43;;
67861;SDS011;54665;51.462;6.698;2024-01-16T03:12:22;16.50;;;5.23;;
67861;SDS011;54665;51.462;6.698;2024-01-16T03:14:23;16.80;;;5.63;;
67861;SDS011;54665;51.462;6.698;2024-01-16T03:16:23;15.00;;;5.95;;
67861;SDS011;54665;51.462;6.698;2024-01-16T03:18:24;12.67;;;5.03;;
67861;SDS011;54665;51.462;6.698;2024-01-16T03:20:24;15.67;;;5.90;;
67861;SDS011;54665;51.462;6.698;2024-01-16T03:22:24;13.43;;;5.27;;
67861;SDS011;54665;51.462;6.698;2024-01-16T03:24:24;12.83;;;4.57;;
67861;SDS011;54665;51.462;6.698;2024-01-16T03:26:25;16.70;;;5.40;;
67861;SDS011;54665;51.462;6.698;2024-01-16T03:28:25;12.17;;;4.23;;
67861;SDS011;54665;51.462;6.698;2024-01-16T03:30:25;11.60;;;3.43;;
67861;SDS011;54665;51.462;6.698;2024-01-16T03:32:25;14.30;;;4.90;;
67861;SDS011;54665;51.462;6.698;2024-01-16T03:34:26;13.07;;;5.03;;
67861;SDS011;54665;51.462;6.698;2024-01-16T03:36:26;13.53;;;4.83;;
67861;SDS011;54665;51.462;6.698;2024-01-16T03:38:26;17.20;;;5.67;;
67861;SDS011;54665;51.462;6.698;2024-01-16T03:40:27;18.03;;;5.30;;
67861;SDS011;54665;51.462;6.698;2024-01-16T03:42:27;17.40;;;5.37;;
67861;SDS011;54665;51.462;6.698;2024-01-16T03:44:27;15.40;;;5.17;;
67861;SDS011;54665;51.462;6.698;2024-01-16T03:46:27;12.40;;;4.47;;
67861;SDS011;54665;51.462;6.698;2024-01-16T03:48:28;16.20;;;5.73;;
67861;SDS011;54665;51.462;6.698;2024-01-16T03:50:28;16.88;;;5.78;;
67861;SDS011;54665;51.462;6.698;2024-01-16T03:52:28;15.27;;;5.67;;
67861;SDS011;54665;51.462;6.698;2024-01-16T03:54:29;17.10;;;6.10;;
67861;SDS011;54665;51.462;6.698;2024-01-16T03:56:29;17.37;;;5.87;;
67861;SDS011;54665;51.462;6.698;2024-01-16T03:58:29;13.37;;;4.47;;
67861;SDS011;54665;51.462;6.698;2024-01-16T04:00:29;17.20;;;5.83;;
67861;SDS011;54665;51.462;6.698;2024-01-16T04:02:30;14.70;;;4.33;;
67861;SDS011;54665;51.462;6.698;2024-01-16T04:04:30;12.93;;;4.50;;
67861;SDS011;54665;51.462;6.698;2024-01-16T04:06:30;10.00;;;3.43;;
67861;SDS011;54665;51.462;6.698;2024-01-16T04:08:33;10.63;;;3.67;;
67861;SDS011;54665;51.462;6.698;2024-01-16T04:10:34;15.53;;;4.73;;
67861;SDS011;54665;51.462;6.698;2024-01-16T04:12:34;14.32;;;4.53;;
67861;SDS011;54665;51.462;6.698;2024-01-16T04:14:35;16.67;;;5.77;;
67861;SDS011;54665;51.462;6.698;2024-01-16T04:16:35;14.40;;;5.13;;
67861;SDS011;54665;51.462;6.698;2024-01-16T04:18:36;15.00;;;4.63;;
67861;SDS011;54665;51.462;6.698;2024-01-16T04:20:36;9.70;;;3.42;;
67861;SDS011;54665;51.462;6.698;2024-01-16T04:22:37;11.40;;;3.63;;
67861;SDS011;54665;51.462;6.698;2024-01-16T04:24:37;11.13;;;4.00;;
67861;SDS011;54665;51.462;6.698;2024-01-16T04:26:37;12.40;;;3.50;;
67861;SDS011;54665;51.462;6.698;2024-01-16T04:28:37;10.48;;;3.70;;
67861;SDS011;54665;51.462;6.698;2024-01-16T04:30:38;9.98;;;3.38;;
67861;SDS011;54665;51.462;6.698;2024-01-16T04:32:38;12.17;;;3.57;;
67861;SDS011;54665;51.462;6.698;2024-01-16T04:34:38;11.40;;;3.80;;
67861;SDS011;54665;51.462;6.698;2024-01-16T04:36:39;11.33;;;3.80;;
67861;SDS011;54665;51.462;6.698;2024-01-16T04:38:39;8.80;;;3.30;;
67861;SDS011;54665;51.462;6.698;2024-01-16T04:40:39;9.10;;;3.30;;
67861;SDS011;54665;51.462;6.698;2024-01-16T04:42:40;13.73;;;3.72;;
67861;SDS011;54665;51.462;6.698;2024-01-16T04:44:40;9.63;;;3.13;;
67861;SDS011;54665;51.462;6.698;2024-01-16T04:46:40;7.63;;;2.20;;
67861;SDS011;54665;51.462;6.698;2024-01-16T04:48:41;6.10;;;1.90;;
67861;SDS011;54665;51.462;6.698;2024-01-16T04:50:41;7.43;;;3.08;;
67861;SDS011;54665;51.462;6.698;2024-01-16T04:52:42;9.53;;;3.10;;
67861;SDS011;54665;51.462;6.698;2024-01-16T04:54:42;6.90;;;2.60;;
67861;SDS011;54665;51.462;6.698;2024-01-16T04:56:42;6.70;;;2.30;;
67861;SDS011;54665;51.462;6.698;2024-01-16T04:58:43;8.87;;;2.63;;
67861;SDS011;54665;51.462;6.698;2024-01-16T05:00:43;6.07;;;2.07;;
67861;SDS011;54665;51.462;6.698;2024-01-16T05:02:43;7.30;;;2.40;;
67861;SDS011;54665;51.462;6.698;2024-01-16T05:04:44;7.63;;;2.30;;
67861;SDS011;54665;51.462;6.698;2024-01-16T05:06:44;5.33;;;1.83;;
67861;SDS011;54665;51.462;6.698;2024-01-16T05:08:44;6.43;;;2.25;;
67861;SDS011;54665;51.462;6.698;2024-01-16T05:10:44;6.03;;;1.83;;
67861;SDS011;54665;51.462;6.698;2024-01-16T05:12:45;10.63;;;2.60;;
67861;SDS011;54665;51.462;6.698;2024-01-16T05:14:45;6.13;;;1.67;;
67861;SDS011;54665;51.462;6.698;2024-01-16T05:16:45;4.87;;;1.93;;
67861;SDS011;54665;51.462;6.698;2024-01-16T05:18:46;8.07;;;2.67;;
67861;SDS011;54665;51.462;6.698;2024-01-16T05:20:46;7.77;;;2.60;;
67861;SDS011;54665;51.462;6.698;2024-01-16T05:22:46;9.73;;;2.83;;
67861;SDS011;54665;51.462;6.698;2024-01-16T05:24:46;5.00;;;2.00;;
67861;SDS011;54665;51.462;6.698;2024-01-16T05:26:47;7.55;;;2.53;;
67861;SDS011;54665;51.462;6.698;2024-01-16T05:28:47;6.90;;;2.53;;
67861;SDS011;54665;51.462;6.698;2024-01-16T05:30:48;10.33;;;2.87;;
67861;SDS011;54665;51.462;6.698;2024-01-16T05:32:48;10.23;;;3.40;;
67861;SDS011;54665;51.462;6.698;2024-01-16T05:34:48;10.77;;;3.70;;
67861;SDS011;54665;51.462;6.698;2024-01-16T05:36:48;13.50;;;4.17;;
67861;SDS011;54665;51.462;6.698;2024-01-16T05:38:49;15.03;;;4.40;;
67861;SDS011;54665;51.462;6.698;2024-01-16T05:40:49;14.03;;;4.73;;
67861;SDS011;54665;51.462;6.698;2024-01-16T05:42:49;14.50;;;5.03;;
67861;SDS011;54665;51.462;6.698;2024-01-16T05:44:50;12.37;;;5.27;;
67861;SDS011;54665;51.462;6.698;2024-01-16T05:46:50;12.47;;;4.50;;
67861;SDS011;54665;51.462;6.698;2024-01-16T05:48:51;19.03;;;6.30;;
67861;SDS011;54665;51.462;6.698;2024-01-16T05:50:51;19.67;;;6.87;;
67861;SDS011;54665;51.462;6.698;2024-01-16T05:52:51;18.85;;;6.40;;
67861;SDS011;54665;51.462;6.698;2024-01-16T05:54:52;16.20;;;6.45;;
67861;SDS011;54665;51.462;6.698;2024-01-16T05:56:52;16.40;;;5.40;;
67861;SDS011;54665;51.462;6.698;2024-01-16T05:58:52;24.17;;;8.60;;
67861;SDS011;54665;51.462;6.698;2024-01-16T06:00:52;25.77;;;8.37;;
67861;SDS011;54665;51.462;6.698;2024-01-16T06:02:53;27.37;;;10.00;;
67861;SDS011;54665;51.462;6.698;2024-01-16T06:04:53;28.23;;;10.13;;
67861;SDS011;54665;51.462;6.698;2024-01-16T06:06:53;27.27;;;9.73;;
67861;SDS011;54665;51.462;6.698;2024-01-16T06:08:53;25.03;;;8.93;;
67861;SDS011;54665;51.462;6.698;2024-01-16T06:10:54;21.53;;;7.43;;
67861;SDS011;54665;51.462;6.698;2024-01-16T06:12:54;24.05;;;7.97;;
67861;SDS011;54665;51.462;6.698;2024-01-16T06:14:54;30.45;;;10.45;;
67861;SDS011;54665;51.462;6.698;2024-01-16T06:16:55;24.77;;;9.33;;
67861;SDS011;54665;51.462;6.698;2024-01-16T06:18:55;24.63;;;8.50;;
67861;SDS011;54665;51.462;6.698;2024-01-16T06:20:55;28.40;;;9.40;;
67861;SDS011;54665;51.462;6.698;2024-01-16T06:22:56;15.77;;;5.87;;
67861;SDS011;54665;51.462;6.698;2024-01-16T06:24:56;22.02;;;8.77;;
67861;SDS011;54665;51.462;6.698;2024-01-16T06:26:56;24.30;;;8.02;;
67861;SDS011;54665;51.462;6.698;2024-01-16T06:28:57;24.87;;;7.87;;
67861;SDS011;54665;51.462;6.698;2024-01-16T06:30:57;27.20;;;8.13;;
67861;SDS011;54665;51.462;6.698;2024-01-16T06:32:58;11.73;;;5.00;;
67861;SDS011;54665;51.462;6.698;2024-01-16T06:34:58;17.30;;;6.30;;
67861;SDS011;54665;51.462;6.698;2024-01-16T06:36:59;14.83;;;6.20;;
67861;SDS011;54665;51.462;6.698;2024-01-16T06:38:59;19.27;;;7.17;;
67861;SDS011;54665;51.462;6.698;2024-01-16T06:40:59;20.80;;;7.23;;
67861;SDS011;54665;51.462;6.698;2024-01-16T06:42:59;25.07;;;8.10;;
67861;SDS011;54665;51.462;6.698;2024-01-16T06:45:00;18.10;;;7.10;;
67861;SDS011;54665;51.462;6.698;2024-01-16T06:47:00;17.73;;;6.90;;
67861;SDS011;54665;51.462;6.698;2024-01-16T06:49:00;19.48;;;7.45;;
67861;SDS011;54665;51.462;6.698;2024-01-16T06:51:01;19.93;;;6.37;;
67861;SDS011;54665;51.462;6.698;2024-01-16T06:53:01;21.10;;;6.63;;
67861;SDS011;54665;51.462;6.698;2024-01-16T06:55:02;22.40;;;7.00;;
67861;SDS011;54665;51.462;6.698;2024-01-16T06:57:02;18.13;;;6.18;;
67861;SDS011;54665;51.462;6.698;2024-01-16T06:59:04;17.58;;;6.22;;
67861;SDS011;54665;51.462;6.698;2024-01-16T07:01:04;15.57;;;5.83;;
67861;SDS011;54665;51.462;6.698;2024-01-16T07:03:04;21.57;;;7.80;;
67861;SDS011;54665;51.462;6.698;2024-01-16T07:05:05;22.97;;;7.93;;
67861;SDS011;54665;51.462;6.698;2024-01-16T07:07:05;19.70;;;7.07;;
67861;SDS011;54665;51.462;6.698;2024-01-16T07:09:05;26.23;;;7.40;;
67861;SDS011;54665;51.462;6.698;2024-01-16T07:11:06;18.17;;;6.93;;
67861;SDS011;54665;51.462;6.698;2024-01-16T07:13:06;23.27;;;7.03;;
67861;SDS011;54665;51.462;6.698;2024-01-16T07:15:06;20.30;;;6.43;;
67861;SDS011;54665;51.462;6.698;2024-01-16T07:17:07;25.87;;;7.40;;
67861;SDS011;54665;51.462;6.698;2024-01-16T07:19:07;19.53;;;6.80;;
67861;SDS011;54665;51.462;6.698;2024-01-16T07:21:20;19.17;;;6.17;;
67861;SDS011;54665;51.462;6.698;2024-01-16T07:23:20;11.45;;;4.10;;
67861;SDS011;54665;51.462;6.698;2024-01-16T07:25:20;15.27;;;4.93;;
67861;SDS011;54665;51.462;6.698;2024-01-16T07:27:21;14.83;;;5.27;;
67861;SDS011;54665;51.462;6.698;2024-01-16T07:29:21;8.17;;;2.87;;
67861;SDS011;54665;51.462;6.698;2024-01-16T07:31:21;15.38;;;4.32;;
67861;SDS011;54665;51.462;6.698;2024-01-16T07:33:21;12.68;;;4.97;;
67861;SDS011;54665;51.462;6.698;2024-01-16T07:35:22;11.20;;;4.63;;
67861;SDS011;54665;51.462;6.698;2024-01-16T07:37:22;16.73;;;4.87;;
67861;SDS011;54665;51.462;6.698;2024-01-16T07:39:22;15.53;;;4.73;;
67861;SDS011;54665;51.462;6.698;2024-01-16T07:41:22;15.70;;;4.60;;
67861;SDS011;54665;51.462;6.698;2024-01-16T07:43:23;12.87;;;4.20;;
67861;SDS011;54665;51.462;6.698;2024-01-16T07:45:23;12.40;;;3.60;;
67861;SDS011;54665;51.462;6.698;2024-01-16T07:47:24;14.15;;;4.40;;
67861;SDS011;54665;51.462;6.698;2024-01-16T07:49:24;10.07;;;3.57;;
67861;SDS011;54665;51.462;6.698;2024-01-16T07:51:25;14.60;;;3.97;;
67861;SDS011;54665;51.462;6.698;2024-01-16T07:53:25;11.43;;;3.27;;
67861;SDS011;54665;51.462;6.698;2024-01-16T07:55:25;10.17;;;3.47;;
67861;SDS011;54665;51.462;6.698;2024-01-16T07:57:25;8.27;;;2.83;;
67861;SDS011;54665;51.462;6.698;2024-01-16T07:59:26;11.40;;;2.95;;
67861;SDS011;54665;51.462;6.698;2024-01-16T08:01:27;9.40;;;3.20;;
67861;SDS011;54665;51.462;6.698;2024-01-16T08:03:27;10.63;;;3.03;;
67861;SDS011;54665;51.462;6.698;2024-01-16T08:05:27;11.18;;;2.83;;
67861;SDS011;54665;51.462;6.698;2024-01-16T08:07:28;11.70;;;3.20;;
67861;SDS011;54665;51.462;6.698;2024-01-16T08:09:28;9.47;;;2.90;;
67861;SDS011;54665;51.462;6.698;2024-01-16T08:11:28;12.70;;;3.20;;
67861;SDS011;54665;51.462;6.698;2024-01-16T08:13:29;10.13;;;3.10;;
67861;SDS011;54665;51.462;6.698;2024-01-16T08:15:29;13.60;;;3.13;;
67861;SDS011;54665;51.462;6.698;2024-01-16T08:17:30;10.93;;;2.47;;
67861;SDS011;54665;51.462;6.698;2024-01-16T08:19:30;8.70;;;2.90;;
67861;SDS011;54665;51.462;6.698;2024-01-16T08:21:30;9.67;;;2.87;;
67861;SDS011;54665;51.462;6.698;2024-01-16T08:23:31;14.50;;;2.93;;
67861;SDS011;54665;51.462;6.698;2024-01-16T08:25:31;6.97;;;2.27;;
67861;SDS011;54665;51.462;6.698;2024-01-16T08:27:31;5.07;;;1.30;;
67861;SDS011;54665;51.462;6.698;2024-01-16T08:29:32;9.38;;;2.20;;
67861;SDS011;54665;51.462;6.698;2024-01-16T08:31:32;8.13;;;1.83;;
67861;SDS011;54665;51.462;6.698;2024-01-16T08:33:32;9.10;;;2.87;;
67861;SDS011;54665;51.462;6.698;2024-01-16T08:35:32;9.43;;;2.53;;
67861;SDS011;54665;51.462;6.698;2024-01-16T08:37:33;5.83;;;2.20;;
67861;SDS011;54665;51.462;6.698;2024-01-16T08:39:33;8.53;;;2.40;;
67861;SDS011;54665;51.462;6.698;2024-01-16T08:41:33;7.03;;;2.00;;
67861;SDS011;54665;51.462;6.698;2024-01-16T08:43:34;5.40;;;2.15;;
67861;SDS011;54665;51.462;6.698;2024-01-16T08:45:34;7.00;;;1.55;;
67861;SDS011;54665;51.462;6.698;2024-01-16T08:47:34;11.87;;;2.80;;
67861;SDS011;54665;51.462;6.698;2024-01-16T08:49:35;7.20;;;2.23;;
67861;SDS011;54665;51.462;6.698;2024-01-16T08:51:35;8.00;;;1.70;;
67861;SDS011;54665;51.462;6.698;2024-01-16T08:53:35;9.53;;;2.87;;
67861;SDS011;54665;51.462;6.698;2024-01-16T08:55:36;8.07;;;2.27;;
67861;SDS011;54665;51.462;6.698;2024-01-16T08:57:36;10.47;;;2.40;;
67861;SDS011;54665;51.462;6.698;2024-01-16T08:59:37;10.05;;;2.45;;
67861;SDS011;54665;51.462;6.698;2024-01-16T09:01:37;6.20;;;1.73;;
67861;SDS011;54665;51.462;6.698;2024-01-16T09:03:37;4.63;;;1.80;;
67861;SDS011;54665;51.462;6.698;2024-01-16T09:05:38;8.10;;;2.17;;
67861;SDS011;54665;51.462;6.698;2024-01-16T09:07:38;5.40;;;1.43;;
67861;SDS011;54665;51.462;6.698;2024-01-16T09:09:38;6.78;;;2.40;;
67861;SDS011;54665;51.462;6.698;2024-01-16T09:11:38;6.30;;;2.23;;
67861;SDS011;54665;51.462;6.698;2024-01-16T09:13:39;10.60;;;3.30;;
67861;SDS011;54665;51.462;6.698;2024-01-16T09:15:39;7.30;;;2.30;;
67861;SDS011;54665;51.462;6.698;2024-01-16T09:17:39;5.70;;;1.73;;
67861;SDS011;54665;51.462;6.698;2024-01-16T09:19:40;10.97;;;3.00;;
67861;SDS011;54665;51.462;6.698;2024-01-16T09:21:40;11.17;;;2.63;;
67861;SDS011;54665;51.462;6.698;2024-01-16T09:23:40;12.43;;;3.00;;
67861;SDS011;54665;51.462;6.698;2024-01-16T09:25:40;8.23;;;2.40;;
67861;SDS011;54665;51.462;6.698;2024-01-16T09:27:41;6.95;;;2.40;;
67861;SDS011;54665;51.462;6.698;2024-01-16T09:29:41;7.75;;;2.70;;
67861;SDS011;54665;51.462;6.698;2024-01-16T09:31:41;10.97;;;3.00;;
67861;SDS011;54665;51.462;6.698;2024-01-16T09:33:42;5.80;;;2.10;;
67861;SDS011;54665;51.462;6.698;2024-01-16T09:35:42;13.27;;;2.70;;
67861;SDS011;54665;51.462;6.698;2024-01-16T09:37:43;8.80;;;2.27;;
67861;SDS011;54665;51.462;6.698;2024-01-16T09:39:43;9.20;;;2.75;;
67861;SDS011;54665;51.462;6.698;2024-01-16T09:41:44;9.35;;;2.72;;
67861;SDS011;54665;51.462;6.698;2024-01-16T09:43:45;7.77;;;2.27;;
67861;SDS011;54665;51.462;6.698;2024-01-16T09:45:47;9.32;;;2.38;;
67861;SDS011;54665;51.462;6.698;2024-01-16T09:47:49;18.92;;;2.55;;
67861;SDS011;54665;51.462;6.698;2024-01-16T09:49:51;10.00;;;3.30;;
67861;SDS011;54665;51.462;6.698;2024-01-16T09:51:52;9.13;;;2.75;;
67861;SDS011;54665;51.462;6.698;2024-01-16T09:53:52;7.33;;;2.80;;
67861;SDS011;54665;51.462;6.698;2024-01-16T09:55:54;12.83;;;3.20;;
67861;SDS011;54665;51.462;6.698;2024-01-16T09:57:58;10.70;;;3.08;;
67861;SDS011;54665;51.462;6.698;2024-01-16T10:00:00;11.23;;;3.33;;
67861;SDS011;54665;51.462;6.698;2024-01-16T10:02:01;8.63;;;3.07;;
67861;SDS011;54665;51.462;6.698;2024-01-16T10:04:02;7.80;;;2.47;;
67861;SDS011;54665;51.462;6.698;2024-01-16T10:06:03;9.53;;;2.90;;
67861;SDS011;54665;51.462;6.698;2024-01-16T10:08:05;5.60;;;2.00;;
67861;SDS011;54665;51.462;6.698;2024-01-16T10:10:06;10.25;;;3.20;;
67861;SDS011;54665;51.462;6.698;2024-01-16T10:12:07;11.15;;;3.40;;
67861;SDS011;54665;51.462;6.698;2024-01-16T10:14:08;8.00;;;2.80;;
67861;SDS011;54665;51.462;6.698;2024-01-16T10:16:10;10.80;;;2.50;;
67861;SDS011;54665;51.462;6.698;2024-01-16T10:18:23;5.83;;;2.60;;
67861;SDS011;54665;51.462;6.698;2024-01-16T10:20:34;11.38;;;3.30;;
67861;SDS011;54665;51.462;6.698;2024-01-16T10:22:35;11.50;;;3.53;;
67861;SDS011;54665;51.462;6.698;2024-01-16T10:24:35;9.13;;;3.15;;
67861;SDS011;54665;51.462;6.698;2024-01-16T10:26:35;8.03;;;3.37;;
67861;SDS011;54665;51.462;6.698;2024-01-16T10:28:39;10.03;;;3.17;;
67861;SDS011;54665;51.462;6.698;2024-01-16T10:30:41;8.75;;;3.03;;
67861;SDS011;54665;51.462;6.698;2024-01-16T10:32:42;8.33;;;2.37;;
67861;SDS011;54665;51.462;6.698;2024-01-16T10:34:43;9.77;;;3.00;;
67861;SDS011;54665;51.462;6.698;2024-01-16T10:36:44;12.82;;;3.63;;
67861;SDS011;54665;51.462;6.698;2024-01-16T10:38:44;6.83;;;2.57;;
67861;SDS011;54665;51.462;6.698;2024-01-16T10:40:45;7.85;;;2.83;;
67861;SDS011;54665;51.462;6.698;2024-01-16T10:42:45;8.33;;;2.67;;
67861;SDS011;54665;51.462;6.698;2024-01-16T10:44:52;11.27;;;3.58;;
67861;SDS011;54665;51.462;6.698;2024-01-16T10:47:09;9.82;;;3.08;;
67861;SDS011;54665;51.462;6.698;2024-01-16T10:49:10;12.97;;;3.90;;
67861;SDS011;54665;51.462;6.698;2024-01-16T10:51:11;11.07;;;3.70;;
67861;SDS011;54665;51.462;6.698;2024-01-16T10:53:14;9.63;;;3.67;;
67861;SDS011;54665;51.462;6.698;2024-01-16T10:55:20;7.57;;;3.05;;
67861;SDS011;54665;51.462;6.698;2024-01-16T10:57:21;10.95;;;3.78;;
67861;SDS011;54665;51.462;6.698;2024-01-16T10:59:25;11.60;;;3.75;;
67861;SDS011;54665;51.462;6.698;2024-01-16T11:01:32;10.57;;;3.33;;
67861;SDS011;54665;51.462;6.698;2024-01-16T11:03:38;10.32;;;3.05;;
67861;SDS011;54665;51.462;6.698;2024-01-16T11:05:43;6.30;;;2.45;;
67861;SDS011;54665;51.462;6.698;2024-01-16T11:07:44;12.20;;;3.90;;
67861;SDS011;54665;51.462;6.698;2024-01-16T11:09:45;8.37;;;3.27;;
67861;SDS011;54665;51.462;6.698;2024-01-16T11:11:45;9.77;;;3.58;;
67861;SDS011;54665;51.462;6.698;2024-01-16T11:13:46;9.02;;;3.60;;
67861;SDS011;54665;51.462;6.698;2024-01-16T11:15:48;9.07;;;3.50;;
67861;SDS011;54665;51.462;6.698;2024-01-16T11:17:49;9.88;;;3.40;;
67861;SDS011;54665;51.462;6.698;2024-01-16T11:19:50;8.75;;;3.70;;
67861;SDS011;54665;51.462;6.698;2024-01-16T11:21:51;11.30;;;3.42;;
67861;SDS011;54665;51.462;6.698;2024-01-16T11:23:52;10.43;;;3.40;;
67861;SDS011;54665;51.462;6.698;2024-01-16T11:25:52;8.63;;;3.20;;
67861;SDS011;54665;51.462;6.698;2024-01-16T11:27:52;14.50;;;3.80;;
67861;SDS011;54665;51.462;6.698;2024-01-16T11:29:52;7.90;;;3.07;;
67861;SDS011;54665;51.462;6.698;2024-01-16T11:31:56;7.73;;;2.67;;
67861;SDS011;54665;51.462;6.698;2024-01-16T11:33:57;10.38;;;3.50;;
67861;SDS011;54665;51.462;6.698;2024-01-16T11:35:59;10.30;;;3.10;;
67861;SDS011;54665;51.462;6.698;2024-01-16T11:38:03;9.00;;;3.25;;
67861;SDS011;54665;51.462;6.698;2024-01-16T11:42:25;9.80;;;3.05;;
67861;SDS011;54665;51.462;6.698;2024-01-16T11:44:41;10.43;;;3.37;;
67861;SDS011;54665;51.462;6.698;2024-01-16T11:47:00;10.65;;;3.25;;
67861;SDS011;54665;51.462;6.698;2024-01-16T11:49:03;9.52;;;3.50;;
67861;SDS011;54665;51.462;6.698;2024-01-16T11:51:23;10.10;;;4.18;;
67861;SDS011;54665;51.462;6.698;2024-01-16T11:55:31;8.27;;;3.03;;
67861;SDS011;54665;51.462;6.698;2024-01-16T11:57:36;8.82;;;3.33;;
67861;SDS011;54665;51.462;6.698;2024-01-16T12:00:00;11.52;;;4.00;;
67861;SDS011;54665;51.462;6.698;2024-01-16T12:02:14;10.00;;;3.05;;
67861;SDS011;54665;51.462;6.698;2024-01-16T12:04:20;9.73;;;3.03;;
67861;SDS011;54665;51.462;6.698;2024-01-16T12:06:20;11.53;;;3.73;;
67861;SDS011;54665;51.462;6.698;2024-01-16T12:08:21;11.17;;;3.83;;